Berkeley Springs, West Virginia
Current Conditions -  °F | °C
As of 6:11 AM on Tuesday 21 Oct 2014 (Local Time) from KMRB Reporting Station
Haze Haze  
Wind Chill: 47°   Ceiling: 4800
Heat Index: 47°   Visibility: 3mi
Dew Point: 44°   Wind: 3mph
Humidity: 90%   Direction: 230°SW
Pressure: 29.86"   Gusts: NA
Location:  39.63°N, 78.23°W
Report Text: KMRB 211011Z AUTO 23003KT 3SM BR BKN048 08/07 A2986 RMK AO2 T00830067 TSNO
Loading
Personal Weather Stations






























Interactive Weather Map
Tropical Storm Tracking
New forecast layout! Learn more

10-Day Weather Forecast

Advertisements
Track Severe Weather on mobile